Terminal Aerodrome Forecast
Issued by NWS

Home | Current Version | Previous Version | Graphics & Text | Print | Product List | Glossary On
Versions: 1 2 3 4 5 6 7 8 9 10 11 12 13
000
FTUS43 KBIS 131700
TAFJMS
TAF
KJMS 131723Z 1318/1418 34023G32KT P6SM BKN030
     FM140200 33013KT P6SM SCT035
     FM141000 32012KT P6SM VCSH BKN025=

USA.gov is the U.S. government's official web portal to all federal, state and local government web resources and services.